sensor_id;sensor_type;location;lat;lon;timestamp;P1;durP1;ratioP1;P2;durP2;ratioP2
75272;SDS011;63869;52.344;16.928;2023-05-29T00:00:40;9.20;;;4.40;;
75272;SDS011;63869;52.344;16.928;2023-05-29T00:03:05;9.23;;;4.88;;
75272;SDS011;63869;52.344;16.928;2023-05-29T00:05:31;11.65;;;5.00;;
75272;SDS011;63869;52.344;16.928;2023-05-29T00:07:56;15.43;;;5.63;;
75272;SDS011;63869;52.344;16.928;2023-05-29T00:10:21;12.63;;;5.25;;
75272;SDS011;63869;52.344;16.928;2023-05-29T00:12:47;11.70;;;5.50;;
75272;SDS011;63869;52.344;16.928;2023-05-29T00:15:12;15.30;;;5.82;;
75272;SDS011;63869;52.344;16.928;2023-05-29T00:17:39;13.95;;;5.85;;
75272;SDS011;63869;52.344;16.928;2023-05-29T00:20:05;10.48;;;5.25;;
75272;SDS011;63869;52.344;16.928;2023-05-29T00:22:34;12.05;;;6.03;;
75272;SDS011;63869;52.344;16.928;2023-05-29T00:25:02;12.73;;;5.93;;
75272;SDS011;63869;52.344;16.928;2023-05-29T00:27:29;14.23;;;5.40;;
75272;SDS011;63869;52.344;16.928;2023-05-29T00:29:54;11.07;;;5.45;;
75272;SDS011;63869;52.344;16.928;2023-05-29T00:32:19;9.63;;;5.43;;
75272;SDS011;63869;52.344;16.928;2023-05-29T00:34:45;12.45;;;5.82;;
75272;SDS011;63869;52.344;16.928;2023-05-29T00:37:10;17.80;;;5.97;;
75272;SDS011;63869;52.344;16.928;2023-05-29T00:39:35;11.35;;;5.80;;
75272;SDS011;63869;52.344;16.928;2023-05-29T00:42:01;11.27;;;5.68;;
75272;SDS011;63869;52.344;16.928;2023-05-29T00:44:26;11.48;;;5.32;;
75272;SDS011;63869;52.344;16.928;2023-05-29T00:46:52;11.05;;;5.28;;
75272;SDS011;63869;52.344;16.928;2023-05-29T00:49:18;10.70;;;5.35;;
75272;SDS011;63869;52.344;16.928;2023-05-29T00:51:45;12.90;;;5.32;;
75272;SDS011;63869;52.344;16.928;2023-05-29T00:54:11;12.13;;;5.50;;
75272;SDS011;63869;52.344;16.928;2023-05-29T00:56:39;10.50;;;5.20;;
75272;SDS011;63869;52.344;16.928;2023-05-29T00:59:08;12.63;;;5.03;;
75272;SDS011;63869;52.344;16.928;2023-05-29T01:01:34;12.70;;;5.15;;
75272;SDS011;63869;52.344;16.928;2023-05-29T01:04:00;11.55;;;5.15;;
75272;SDS011;63869;52.344;16.928;2023-05-29T01:06:28;8.60;;;4.57;;
75272;SDS011;63869;52.344;16.928;2023-05-29T01:08:54;12.27;;;5.30;;
75272;SDS011;63869;52.344;16.928;2023-05-29T01:11:31;12.55;;;5.32;;
75272;SDS011;63869;52.344;16.928;2023-05-29T01:17:32;13.63;;;5.00;;
75272;SDS011;63869;52.344;16.928;2023-05-29T01:20:35;17.27;;;5.15;;
75272;SDS011;63869;52.344;16.928;2023-05-29T01:28:57;20.23;;;5.88;;
75272;SDS011;63869;52.344;16.928;2023-05-29T01:31:25;29.50;;;5.93;;
75272;SDS011;63869;52.344;16.928;2023-05-29T01:33:52;27.88;;;5.68;;
75272;SDS011;63869;52.344;16.928;2023-05-29T01:36:18;23.55;;;5.65;;
75272;SDS011;63869;52.344;16.928;2023-05-29T01:38:44;17.83;;;5.57;;
75272;SDS011;63869;52.344;16.928;2023-05-29T01:41:10;24.35;;;5.43;;
75272;SDS011;63869;52.344;16.928;2023-05-29T01:43:36;15.75;;;5.03;;
75272;SDS011;63869;52.344;16.928;2023-05-29T01:46:02;15.20;;;5.78;;
75272;SDS011;63869;52.344;16.928;2023-05-29T01:48:27;16.73;;;5.13;;
75272;SDS011;63869;52.344;16.928;2023-05-29T01:50:54;12.60;;;5.43;;
75272;SDS011;63869;52.344;16.928;2023-05-29T01:53:20;12.73;;;5.53;;
75272;SDS011;63869;52.344;16.928;2023-05-29T01:55:45;11.57;;;5.00;;
75272;SDS011;63869;52.344;16.928;2023-05-29T01:58:11;11.02;;;4.70;;
75272;SDS011;63869;52.344;16.928;2023-05-29T02:00:38;13.00;;;5.43;;
75272;SDS011;63869;52.344;16.928;2023-05-29T02:03:05;12.15;;;5.25;;
75272;SDS011;63869;52.344;16.928;2023-05-29T02:05:30;10.00;;;5.05;;
75272;SDS011;63869;52.344;16.928;2023-05-29T02:07:55;9.70;;;5.00;;
75272;SDS011;63869;52.344;16.928;2023-05-29T02:10:21;11.60;;;5.57;;
75272;SDS011;63869;52.344;16.928;2023-05-29T02:12:46;14.32;;;5.40;;
75272;SDS011;63869;52.344;16.928;2023-05-29T02:15:11;12.45;;;5.25;;
75272;SDS011;63869;52.344;16.928;2023-05-29T02:17:37;10.63;;;5.72;;
75272;SDS011;63869;52.344;16.928;2023-05-29T02:20:02;9.38;;;5.13;;
75272;SDS011;63869;52.344;16.928;2023-05-29T02:22:29;9.55;;;5.22;;
75272;SDS011;63869;52.344;16.928;2023-05-29T02:24:55;10.55;;;4.93;;
75272;SDS011;63869;52.344;16.928;2023-05-29T02:27:20;12.32;;;5.32;;
75272;SDS011;63869;52.344;16.928;2023-05-29T02:29:45;8.52;;;5.05;;
75272;SDS011;63869;52.344;16.928;2023-05-29T02:32:11;13.13;;;5.10;;
75272;SDS011;63869;52.344;16.928;2023-05-29T02:34:36;9.07;;;4.75;;
75272;SDS011;63869;52.344;16.928;2023-05-29T02:37:01;11.73;;;5.15;;
75272;SDS011;63869;52.344;16.928;2023-05-29T02:39:27;13.15;;;5.60;;
75272;SDS011;63869;52.344;16.928;2023-05-29T02:41:53;12.95;;;5.07;;
75272;SDS011;63869;52.344;16.928;2023-05-29T02:44:19;13.45;;;5.60;;
75272;SDS011;63869;52.344;16.928;2023-05-29T02:46:44;11.13;;;5.20;;
75272;SDS011;63869;52.344;16.928;2023-05-29T02:49:09;15.30;;;5.80;;
75272;SDS011;63869;52.344;16.928;2023-05-29T02:51:35;9.82;;;5.53;;
75272;SDS011;63869;52.344;16.928;2023-05-29T02:54:00;11.20;;;5.20;;
75272;SDS011;63869;52.344;16.928;2023-05-29T02:56:25;13.95;;;5.22;;
75272;SDS011;63869;52.344;16.928;2023-05-29T02:58:51;16.85;;;5.78;;
75272;SDS011;63869;52.344;16.928;2023-05-29T03:01:16;14.05;;;5.43;;
75272;SDS011;63869;52.344;16.928;2023-05-29T03:03:42;9.73;;;5.10;;
75272;SDS011;63869;52.344;16.928;2023-05-29T03:06:08;14.23;;;6.03;;
75272;SDS011;63869;52.344;16.928;2023-05-29T03:08:34;11.82;;;5.50;;
75272;SDS011;63869;52.344;16.928;2023-05-29T03:11:00;12.50;;;5.57;;
75272;SDS011;63869;52.344;16.928;2023-05-29T03:13:25;14.05;;;5.28;;
75272;SDS011;63869;52.344;16.928;2023-05-29T03:15:52;12.10;;;5.03;;
75272;SDS011;63869;52.344;16.928;2023-05-29T03:18:21;10.18;;;5.35;;
75272;SDS011;63869;52.344;16.928;2023-05-29T03:20:47;12.00;;;5.15;;
75272;SDS011;63869;52.344;16.928;2023-05-29T03:23:13;10.77;;;5.25;;
75272;SDS011;63869;52.344;16.928;2023-05-29T03:25:38;10.13;;;5.40;;
75272;SDS011;63869;52.344;16.928;2023-05-29T03:28:03;12.60;;;5.05;;
75272;SDS011;63869;52.344;16.928;2023-05-29T03:30:28;11.70;;;5.47;;
75272;SDS011;63869;52.344;16.928;2023-05-29T03:32:54;12.35;;;5.60;;
75272;SDS011;63869;52.344;16.928;2023-05-29T03:35:19;11.18;;;5.45;;
75272;SDS011;63869;52.344;16.928;2023-05-29T03:37:45;13.30;;;6.00;;
75272;SDS011;63869;52.344;16.928;2023-05-29T03:40:10;14.40;;;5.68;;
75272;SDS011;63869;52.344;16.928;2023-05-29T03:42:36;11.52;;;5.35;;
75272;SDS011;63869;52.344;16.928;2023-05-29T03:45:01;20.58;;;5.57;;
75272;SDS011;63869;52.344;16.928;2023-05-29T03:47:27;28.30;;;5.63;;
75272;SDS011;63869;52.344;16.928;2023-05-29T03:49:52;14.25;;;4.50;;
75272;SDS011;63869;52.344;16.928;2023-05-29T03:52:17;9.80;;;4.82;;
75272;SDS011;63869;52.344;16.928;2023-05-29T03:54:42;10.73;;;4.82;;
75272;SDS011;63869;52.344;16.928;2023-05-29T03:57:09;8.70;;;4.65;;
75272;SDS011;63869;52.344;16.928;2023-05-29T03:59:35;27.05;;;5.40;;
75272;SDS011;63869;52.344;16.928;2023-05-29T04:02:00;8.38;;;4.40;;
75272;SDS011;63869;52.344;16.928;2023-05-29T04:04:25;8.90;;;4.63;;
75272;SDS011;63869;52.344;16.928;2023-05-29T04:06:52;11.82;;;3.78;;
75272;SDS011;63869;52.344;16.928;2023-05-29T04:09:17;10.10;;;4.30;;
75272;SDS011;63869;52.344;16.928;2023-05-29T04:11:43;8.77;;;4.32;;
75272;SDS011;63869;52.344;16.928;2023-05-29T04:14:09;7.85;;;4.43;;
75272;SDS011;63869;52.344;16.928;2023-05-29T04:16:35;12.25;;;4.50;;
75272;SDS011;63869;52.344;16.928;2023-05-29T04:19:00;13.00;;;4.38;;
75272;SDS011;63869;52.344;16.928;2023-05-29T04:21:25;10.57;;;4.10;;
75272;SDS011;63869;52.344;16.928;2023-05-29T04:23:51;9.75;;;4.40;;
75272;SDS011;63869;52.344;16.928;2023-05-29T04:26:17;9.88;;;4.30;;
75272;SDS011;63869;52.344;16.928;2023-05-29T04:28:42;8.98;;;4.10;;
75272;SDS011;63869;52.344;16.928;2023-05-29T04:31:08;17.35;;;4.78;;
75272;SDS011;63869;52.344;16.928;2023-05-29T04:33:39;11.02;;;4.40;;
75272;SDS011;63869;52.344;16.928;2023-05-29T04:36:05;34.50;;;5.28;;
75272;SDS011;63869;52.344;16.928;2023-05-29T04:38:30;10.20;;;4.43;;
75272;SDS011;63869;52.344;16.928;2023-05-29T04:40:56;6.65;;;3.70;;
75272;SDS011;63869;52.344;16.928;2023-05-29T04:43:24;10.05;;;4.47;;
75272;SDS011;63869;52.344;16.928;2023-05-29T04:45:51;15.07;;;4.35;;
75272;SDS011;63869;52.344;16.928;2023-05-29T04:48:17;8.27;;;4.13;;
75272;SDS011;63869;52.344;16.928;2023-05-29T04:50:43;7.80;;;4.03;;
75272;SDS011;63869;52.344;16.928;2023-05-29T04:53:09;9.77;;;4.05;;
75272;SDS011;63869;52.344;16.928;2023-05-29T04:55:35;13.60;;;3.97;;
75272;SDS011;63869;52.344;16.928;2023-05-29T04:58:01;12.23;;;4.13;;
75272;SDS011;63869;52.344;16.928;2023-05-29T05:00:26;8.95;;;4.10;;
75272;SDS011;63869;52.344;16.928;2023-05-29T05:02:51;28.50;;;5.25;;
75272;SDS011;63869;52.344;16.928;2023-05-29T05:05:17;25.67;;;5.18;;
75272;SDS011;63869;52.344;16.928;2023-05-29T05:07:42;11.15;;;4.30;;
75272;SDS011;63869;52.344;16.928;2023-05-29T05:10:08;8.52;;;4.07;;
75272;SDS011;63869;52.344;16.928;2023-05-29T05:12:33;10.57;;;4.60;;
75272;SDS011;63869;52.344;16.928;2023-05-29T05:14:59;10.45;;;3.90;;
75272;SDS011;63869;52.344;16.928;2023-05-29T05:17:24;9.55;;;4.28;;
75272;SDS011;63869;52.344;16.928;2023-05-29T05:19:49;10.23;;;4.45;;
75272;SDS011;63869;52.344;16.928;2023-05-29T05:22:18;7.90;;;4.30;;
75272;SDS011;63869;52.344;16.928;2023-05-29T05:24:44;10.65;;;4.32;;
75272;SDS011;63869;52.344;16.928;2023-05-29T05:27:10;7.47;;;4.03;;
75272;SDS011;63869;52.344;16.928;2023-05-29T05:29:35;16.65;;;4.45;;
75272;SDS011;63869;52.344;16.928;2023-05-29T05:32:00;7.63;;;4.18;;
75272;SDS011;63869;52.344;16.928;2023-05-29T05:34:25;24.52;;;4.05;;
75272;SDS011;63869;52.344;16.928;2023-05-29T05:36:51;7.93;;;4.20;;
75272;SDS011;63869;52.344;16.928;2023-05-29T05:39:16;6.53;;;4.00;;
75272;SDS011;63869;52.344;16.928;2023-05-29T05:41:41;9.27;;;4.22;;
75272;SDS011;63869;52.344;16.928;2023-05-29T05:44:07;8.50;;;4.20;;
75272;SDS011;63869;52.344;16.928;2023-05-29T05:46:32;21.73;;;4.90;;
75272;SDS011;63869;52.344;16.928;2023-05-29T05:48:57;8.82;;;4.30;;
75272;SDS011;63869;52.344;16.928;2023-05-29T05:51:23;80.25;;;7.90;;
75272;SDS011;63869;52.344;16.928;2023-05-29T05:53:49;11.07;;;4.13;;
75272;SDS011;63869;52.344;16.928;2023-05-29T05:56:14;8.05;;;3.97;;
75272;SDS011;63869;52.344;16.928;2023-05-29T05:58:40;12.18;;;4.47;;
75272;SDS011;63869;52.344;16.928;2023-05-29T06:01:06;10.95;;;4.57;;
75272;SDS011;63869;52.344;16.928;2023-05-29T06:03:33;11.60;;;4.50;;
75272;SDS011;63869;52.344;16.928;2023-05-29T06:05:59;58.13;;;7.00;;
75272;SDS011;63869;52.344;16.928;2023-05-29T06:08:25;9.25;;;4.38;;
75272;SDS011;63869;52.344;16.928;2023-05-29T06:10:51;10.25;;;4.63;;
75272;SDS011;63869;52.344;16.928;2023-05-29T06:13:17;9.57;;;4.30;;
75272;SDS011;63869;52.344;16.928;2023-05-29T06:15:42;11.70;;;4.90;;
75272;SDS011;63869;52.344;16.928;2023-05-29T06:18:08;12.50;;;4.30;;
75272;SDS011;63869;52.344;16.928;2023-05-29T06:20:33;13.27;;;4.32;;
75272;SDS011;63869;52.344;16.928;2023-05-29T06:22:59;11.63;;;4.65;;
75272;SDS011;63869;52.344;16.928;2023-05-29T06:25:24;9.50;;;4.45;;
75272;SDS011;63869;52.344;16.928;2023-05-29T06:27:57;7.18;;;4.43;;
75272;SDS011;63869;52.344;16.928;2023-05-29T06:30:23;9.13;;;4.10;;
75272;SDS011;63869;52.344;16.928;2023-05-29T06:32:48;12.25;;;4.50;;
75272;SDS011;63869;52.344;16.928;2023-05-29T06:35:14;10.68;;;4.68;;
75272;SDS011;63869;52.344;16.928;2023-05-29T06:37:39;9.00;;;4.30;;
75272;SDS011;63869;52.344;16.928;2023-05-29T06:40:05;9.15;;;4.18;;
75272;SDS011;63869;52.344;16.928;2023-05-29T06:42:31;9.10;;;3.75;;
75272;SDS011;63869;52.344;16.928;2023-05-29T06:44:56;14.35;;;4.65;;
75272;SDS011;63869;52.344;16.928;2023-05-29T06:47:21;9.23;;;4.10;;
75272;SDS011;63869;52.344;16.928;2023-05-29T06:49:47;13.30;;;4.72;;
75272;SDS011;63869;52.344;16.928;2023-05-29T06:52:12;9.88;;;4.32;;
75272;SDS011;63869;52.344;16.928;2023-05-29T06:54:37;11.13;;;4.18;;
75272;SDS011;63869;52.344;16.928;2023-05-29T06:57:02;11.75;;;4.40;;
75272;SDS011;63869;52.344;16.928;2023-05-29T06:59:28;8.73;;;3.92;;
75272;SDS011;63869;52.344;16.928;2023-05-29T07:01:53;10.95;;;4.50;;
75272;SDS011;63869;52.344;16.928;2023-05-29T07:04:19;9.82;;;3.60;;
75272;SDS011;63869;52.344;16.928;2023-05-29T07:06:44;11.82;;;3.85;;
75272;SDS011;63869;52.344;16.928;2023-05-29T07:09:09;7.68;;;3.72;;
75272;SDS011;63869;52.344;16.928;2023-05-29T07:11:34;8.80;;;4.20;;
75272;SDS011;63869;52.344;16.928;2023-05-29T07:14:00;9.70;;;4.32;;
75272;SDS011;63869;52.344;16.928;2023-05-29T07:16:25;11.45;;;3.60;;
75272;SDS011;63869;52.344;16.928;2023-05-29T07:18:51;8.93;;;3.50;;
75272;SDS011;63869;52.344;16.928;2023-05-29T07:21:16;6.82;;;3.20;;
75272;SDS011;63869;52.344;16.928;2023-05-29T07:23:43;6.60;;;4.10;;
75272;SDS011;63869;52.344;16.928;2023-05-29T07:26:08;7.65;;;3.10;;
75272;SDS011;63869;52.344;16.928;2023-05-29T07:28:34;5.55;;;3.20;;
75272;SDS011;63869;52.344;16.928;2023-05-29T07:30:59;7.20;;;3.30;;
75272;SDS011;63869;52.344;16.928;2023-05-29T07:33:27;8.65;;;3.40;;
75272;SDS011;63869;52.344;16.928;2023-05-29T07:35:53;8.98;;;3.28;;
75272;SDS011;63869;52.344;16.928;2023-05-29T07:38:18;8.98;;;3.10;;
75272;SDS011;63869;52.344;16.928;2023-05-29T07:40:43;9.30;;;4.03;;
75272;SDS011;63869;52.344;16.928;2023-05-29T07:43:09;5.97;;;3.10;;
75272;SDS011;63869;52.344;16.928;2023-05-29T07:45:34;11.57;;;3.28;;
75272;SDS011;63869;52.344;16.928;2023-05-29T07:48:00;15.63;;;3.63;;
75272;SDS011;63869;52.344;16.928;2023-05-29T07:50:25;9.18;;;3.35;;
75272;SDS011;63869;52.344;16.928;2023-05-29T07:52:50;7.05;;;3.22;;
75272;SDS011;63869;52.344;16.928;2023-05-29T07:55:16;8.55;;;3.20;;
75272;SDS011;63869;52.344;16.928;2023-05-29T07:57:41;7.80;;;3.20;;
75272;SDS011;63869;52.344;16.928;2023-05-29T08:00:07;30.17;;;4.90;;
75272;SDS011;63869;52.344;16.928;2023-05-29T08:02:33;6.70;;;3.30;;
75272;SDS011;63869;52.344;16.928;2023-05-29T08:04:59;10.45;;;3.47;;
75272;SDS011;63869;52.344;16.928;2023-05-29T08:07:27;6.55;;;3.00;;
75272;SDS011;63869;52.344;16.928;2023-05-29T08:09:53;7.60;;;3.28;;
75272;SDS011;63869;52.344;16.928;2023-05-29T08:12:19;10.82;;;3.05;;
75272;SDS011;63869;52.344;16.928;2023-05-29T08:14:44;7.05;;;3.50;;
75272;SDS011;63869;52.344;16.928;2023-05-29T08:17:09;9.45;;;3.20;;
75272;SDS011;63869;52.344;16.928;2023-05-29T08:19:36;6.63;;;3.10;;
75272;SDS011;63869;52.344;16.928;2023-05-29T08:22:02;5.88;;;2.95;;
75272;SDS011;63869;52.344;16.928;2023-05-29T08:24:27;6.45;;;2.95;;
75272;SDS011;63869;52.344;16.928;2023-05-29T08:26:53;7.88;;;3.13;;
75272;SDS011;63869;52.344;16.928;2023-05-29T08:29:20;13.27;;;3.25;;
75272;SDS011;63869;52.344;16.928;2023-05-29T08:31:45;4.18;;;2.75;;
75272;SDS011;63869;52.344;16.928;2023-05-29T08:34:11;11.13;;;3.13;;
75272;SDS011;63869;52.344;16.928;2023-05-29T08:36:36;7.88;;;3.17;;
75272;SDS011;63869;52.344;16.928;2023-05-29T08:39:04;7.25;;;2.92;;
75272;SDS011;63869;52.344;16.928;2023-05-29T08:44:24;4.57;;;3.08;;
75272;SDS011;63869;52.344;16.928;2023-05-29T08:46:54;5.68;;;2.90;;
75272;SDS011;63869;52.344;16.928;2023-05-29T08:49:20;5.35;;;2.83;;
75272;SDS011;63869;52.344;16.928;2023-05-29T08:51:47;8.10;;;3.10;;
75272;SDS011;63869;52.344;16.928;2023-05-29T08:54:20;9.98;;;3.00;;
75272;SDS011;63869;52.344;16.928;2023-05-29T08:56:47;4.70;;;2.88;;
75272;SDS011;63869;52.344;16.928;2023-05-29T08:59:12;6.80;;;3.08;;
75272;SDS011;63869;52.344;16.928;2023-05-29T09:01:38;7.15;;;2.80;;
75272;SDS011;63869;52.344;16.928;2023-05-29T09:04:04;5.85;;;2.80;;
75272;SDS011;63869;52.344;16.928;2023-05-29T09:06:29;55.58;;;5.60;;
75272;SDS011;63869;52.344;16.928;2023-05-29T09:08:55;8.98;;;2.92;;
75272;SDS011;63869;52.344;16.928;2023-05-29T09:11:22;6.18;;;2.75;;
75272;SDS011;63869;52.344;16.928;2023-05-29T09:13:48;22.23;;;3.90;;
75272;SDS011;63869;52.344;16.928;2023-05-29T09:16:15;7.55;;;2.70;;
75272;SDS011;63869;52.344;16.928;2023-05-29T09:18:42;9.70;;;2.97;;
75272;SDS011;63869;52.344;16.928;2023-05-29T09:21:10;5.13;;;2.60;;
75272;SDS011;63869;52.344;16.928;2023-05-29T09:23:51;7.47;;;2.97;;
75272;SDS011;63869;52.344;16.928;2023-05-29T09:26:17;12.95;;;3.92;;
75272;SDS011;63869;52.344;16.928;2023-05-29T09:28:42;6.00;;;2.83;;
75272;SDS011;63869;52.344;16.928;2023-05-29T09:31:16;10.13;;;2.85;;
75272;SDS011;63869;52.344;16.928;2023-05-29T09:33:48;5.78;;;2.60;;
75272;SDS011;63869;52.344;16.928;2023-05-29T09:36:21;8.48;;;3.00;;
75272;SDS011;63869;52.344;16.928;2023-05-29T09:38:48;6.20;;;2.55;;
75272;SDS011;63869;52.344;16.928;2023-05-29T09:41:20;10.50;;;3.25;;
75272;SDS011;63869;52.344;16.928;2023-05-29T09:43:47;6.88;;;2.70;;
75272;SDS011;63869;52.344;16.928;2023-05-29T09:46:15;6.53;;;2.78;;
75272;SDS011;63869;52.344;16.928;2023-05-29T09:48:41;7.65;;;3.08;;
75272;SDS011;63869;52.344;16.928;2023-05-29T09:51:07;7.05;;;2.80;;
75272;SDS011;63869;52.344;16.928;2023-05-29T09:53:48;5.60;;;2.60;;
75272;SDS011;63869;52.344;16.928;2023-05-29T09:56:15;7.85;;;2.92;;
75272;SDS011;63869;52.344;16.928;2023-05-29T09:58:44;6.63;;;2.90;;
75272;SDS011;63869;52.344;16.928;2023-05-29T10:01:11;5.78;;;2.67;;
75272;SDS011;63869;52.344;16.928;2023-05-29T10:03:37;7.32;;;2.88;;
75272;SDS011;63869;52.344;16.928;2023-05-29T10:06:03;10.25;;;2.70;;
75272;SDS011;63869;52.344;16.928;2023-05-29T10:08:30;133.43;;;10.73;;
75272;SDS011;63869;52.344;16.928;2023-05-29T10:10:59;10.43;;;2.88;;
75272;SDS011;63869;52.344;16.928;2023-05-29T10:13:34;6.55;;;2.70;;
75272;SDS011;63869;52.344;16.928;2023-05-29T10:16:05;15.82;;;3.55;;
75272;SDS011;63869;52.344;16.928;2023-05-29T10:18:41;6.78;;;3.25;;
75272;SDS011;63869;52.344;16.928;2023-05-29T10:21:10;7.68;;;2.88;;
75272;SDS011;63869;52.344;16.928;2023-05-29T10:23:37;7.13;;;3.10;;
75272;SDS011;63869;52.344;16.928;2023-05-29T10:26:12;7.18;;;2.90;;
75272;SDS011;63869;52.344;16.928;2023-05-29T10:28:41;5.72;;;2.78;;
75272;SDS011;63869;52.344;16.928;2023-05-29T10:31:14;4.55;;;2.50;;
75272;SDS011;63869;52.344;16.928;2023-05-29T10:36:56;8.10;;;3.10;;
75272;SDS011;63869;52.344;16.928;2023-05-29T10:39:28;7.63;;;2.60;;
75272;SDS011;63869;52.344;16.928;2023-05-29T10:41:54;5.22;;;2.80;;
75272;SDS011;63869;52.344;16.928;2023-05-29T10:47:04;10.05;;;3.38;;
75272;SDS011;63869;52.344;16.928;2023-05-29T10:49:30;4.60;;;2.78;;
75272;SDS011;63869;52.344;16.928;2023-05-29T10:51:57;9.80;;;3.10;;
75272;SDS011;63869;52.344;16.928;2023-05-29T10:54:25;7.05;;;3.05;;
75272;SDS011;63869;52.344;16.928;2023-05-29T10:56:52;6.95;;;2.88;;
75272;SDS011;63869;52.344;16.928;2023-05-29T10:59:20;5.10;;;2.80;;
75272;SDS011;63869;52.344;16.928;2023-05-29T11:01:45;7.68;;;3.17;;
75272;SDS011;63869;52.344;16.928;2023-05-29T11:06:44;6.65;;;2.92;;
75272;SDS011;63869;52.344;16.928;2023-05-29T11:12:16;4.20;;;2.85;;
75272;SDS011;63869;52.344;16.928;2023-05-29T11:15:07;6.68;;;2.85;;
75272;SDS011;63869;52.344;16.928;2023-05-29T11:23:03;6.53;;;2.95;;
75272;SDS011;63869;52.344;16.928;2023-05-29T11:25:33;12.63;;;3.00;;
75272;SDS011;63869;52.344;16.928;2023-05-29T11:28:00;4.57;;;2.70;;
75272;SDS011;63869;52.344;16.928;2023-05-29T11:30:25;11.40;;;3.17;;
75272;SDS011;63869;52.344;16.928;2023-05-29T11:32:51;6.15;;;2.90;;
75272;SDS011;63869;52.344;16.928;2023-05-29T11:35:17;12.75;;;3.22;;
75272;SDS011;63869;52.344;16.928;2023-05-29T11:37:46;6.70;;;3.05;;
75272;SDS011;63869;52.344;16.928;2023-05-29T11:40:13;6.05;;;2.80;;
75272;SDS011;63869;52.344;16.928;2023-05-29T11:42:43;7.68;;;3.08;;
75272;SDS011;63869;52.344;16.928;2023-05-29T11:45:12;19.05;;;3.50;;
75272;SDS011;63869;52.344;16.928;2023-05-29T11:47:54;5.90;;;3.00;;
75272;SDS011;63869;52.344;16.928;2023-05-29T11:50:21;25.83;;;4.23;;
75272;SDS011;63869;52.344;16.928;2023-05-29T11:52:49;5.90;;;2.75;;
75272;SDS011;63869;52.344;16.928;2023-05-29T11:55:14;9.00;;;2.85;;
75272;SDS011;63869;52.344;16.928;2023-05-29T11:57:40;6.18;;;2.83;;
75272;SDS011;63869;52.344;16.928;2023-05-29T12:00:06;5.18;;;3.00;;
75272;SDS011;63869;52.344;16.928;2023-05-29T12:02:32;6.32;;;3.10;;
75272;SDS011;63869;52.344;16.928;2023-05-29T12:05:01;5.97;;;2.72;;
75272;SDS011;63869;52.344;16.928;2023-05-29T12:07:29;5.35;;;2.88;;
75272;SDS011;63869;52.344;16.928;2023-05-29T12:09:55;5.25;;;2.90;;
75272;SDS011;63869;52.344;16.928;2023-05-29T12:12:23;5.80;;;3.10;;
75272;SDS011;63869;52.344;16.928;2023-05-29T12:14:51;5.40;;;2.95;;
75272;SDS011;63869;52.344;16.928;2023-05-29T12:17:17;5.28;;;3.05;;
75272;SDS011;63869;52.344;16.928;2023-05-29T12:19:43;31.70;;;4.60;;
75272;SDS011;63869;52.344;16.928;2023-05-29T12:22:09;6.25;;;3.00;;
75272;SDS011;63869;52.344;16.928;2023-05-29T12:24:35;44.75;;;5.13;;
75272;SDS011;63869;52.344;16.928;2023-05-29T12:27:03;5.95;;;3.00;;
75272;SDS011;63869;52.344;16.928;2023-05-29T12:29:35;5.38;;;2.88;;
75272;SDS011;63869;52.344;16.928;2023-05-29T12:32:01;10.45;;;3.10;;
75272;SDS011;63869;52.344;16.928;2023-05-29T12:34:26;6.47;;;2.75;;
75272;SDS011;63869;52.344;16.928;2023-05-29T12:37:07;25.25;;;4.10;;
75272;SDS011;63869;52.344;16.928;2023-05-29T12:39:34;8.35;;;2.92;;
75272;SDS011;63869;52.344;16.928;2023-05-29T12:42:00;4.43;;;2.80;;
75272;SDS011;63869;52.344;16.928;2023-05-29T12:44:25;5.33;;;2.80;;
75272;SDS011;63869;52.344;16.928;2023-05-29T12:46:55;9.90;;;3.17;;
75272;SDS011;63869;52.344;16.928;2023-05-29T12:49:21;6.45;;;3.00;;
75272;SDS011;63869;52.344;16.928;2023-05-29T12:51:50;4.90;;;2.85;;
75272;SDS011;63869;52.344;16.928;2023-05-29T12:54:17;4.40;;;2.53;;
75272;SDS011;63869;52.344;16.928;2023-05-29T12:56:42;40.60;;;5.05;;
75272;SDS011;63869;52.344;16.928;2023-05-29T12:59:08;4.30;;;2.80;;
75272;SDS011;63869;52.344;16.928;2023-05-29T13:01:35;6.70;;;3.00;;
75272;SDS011;63869;52.344;16.928;2023-05-29T13:04:03;33.13;;;4.72;;
75272;SDS011;63869;52.344;16.928;2023-05-29T13:06:31;6.15;;;2.50;;
75272;SDS011;63869;52.344;16.928;2023-05-29T13:08:56;7.63;;;2.92;;
75272;SDS011;63869;52.344;16.928;2023-05-29T13:11:22;3.80;;;2.70;;
75272;SDS011;63869;52.344;16.928;2023-05-29T13:13:47;28.83;;;4.03;;
75272;SDS011;63869;52.344;16.928;2023-05-29T13:16:12;7.03;;;2.45;;
75272;SDS011;63869;52.344;16.928;2023-05-29T13:18:38;4.75;;;2.35;;
75272;SDS011;63869;52.344;16.928;2023-05-29T13:21:03;4.00;;;2.70;;
75272;SDS011;63869;52.344;16.928;2023-05-29T13:23:28;7.45;;;2.90;;
75272;SDS011;63869;52.344;16.928;2023-05-29T13:25:54;16.65;;;3.22;;
75272;SDS011;63869;52.344;16.928;2023-05-29T13:28:19;50.53;;;4.82;;
75272;SDS011;63869;52.344;16.928;2023-05-29T13:30:46;5.40;;;2.53;;
75272;SDS011;63869;52.344;16.928;2023-05-29T13:33:13;4.38;;;2.50;;
75272;SDS011;63869;52.344;16.928;2023-05-29T13:35:38;5.13;;;2.50;;
75272;SDS011;63869;52.344;16.928;2023-05-29T13:38:03;4.47;;;2.40;;
75272;SDS011;63869;52.344;16.928;2023-05-29T13:40:29;5.43;;;2.70;;
75272;SDS011;63869;52.344;16.928;2023-05-29T13:42:56;6.88;;;2.80;;
75272;SDS011;63869;52.344;16.928;2023-05-29T13:45:22;3.53;;;2.40;;
75272;SDS011;63869;52.344;16.928;2023-05-29T13:47:47;5.35;;;3.05;;
75272;SDS011;63869;52.344;16.928;2023-05-29T13:50:12;5.53;;;3.00;;
75272;SDS011;63869;52.344;16.928;2023-05-29T13:52:38;5.45;;;2.95;;
75272;SDS011;63869;52.344;16.928;2023-05-29T13:55:03;4.05;;;2.50;;
75272;SDS011;63869;52.344;16.928;2023-05-29T13:57:33;4.93;;;2.40;;
75272;SDS011;63869;52.344;16.928;2023-05-29T13:59:59;4.57;;;2.63;;
75272;SDS011;63869;52.344;16.928;2023-05-29T14:02:24;5.95;;;2.50;;
75272;SDS011;63869;52.344;16.928;2023-05-29T14:04:50;3.83;;;2.40;;
75272;SDS011;63869;52.344;16.928;2023-05-29T14:07:16;6.10;;;2.40;;
75272;SDS011;63869;52.344;16.928;2023-05-29T14:09:41;5.20;;;2.40;;
75272;SDS011;63869;52.344;16.928;2023-05-29T14:12:06;15.17;;;3.03;;
75272;SDS011;63869;52.344;16.928;2023-05-29T14:14:32;3.75;;;2.58;;
75272;SDS011;63869;52.344;16.928;2023-05-29T14:16:58;4.40;;;2.50;;
75272;SDS011;63869;52.344;16.928;2023-05-29T14:19:24;6.45;;;2.75;;
75272;SDS011;63869;52.344;16.928;2023-05-29T14:21:49;18.00;;;3.50;;
75272;SDS011;63869;52.344;16.928;2023-05-29T14:24:16;6.05;;;2.40;;
75272;SDS011;63869;52.344;16.928;2023-05-29T14:26:42;7.70;;;2.70;;
75272;SDS011;63869;52.344;16.928;2023-05-29T14:29:08;14.73;;;3.00;;
75272;SDS011;63869;52.344;16.928;2023-05-29T14:31:37;8.00;;;2.88;;
75272;SDS011;63869;52.344;16.928;2023-05-29T14:34:02;4.40;;;2.58;;
75272;SDS011;63869;52.344;16.928;2023-05-29T14:36:28;11.23;;;2.77;;
75272;SDS011;63869;52.344;16.928;2023-05-29T14:38:53;4.47;;;2.75;;
75272;SDS011;63869;52.344;16.928;2023-05-29T14:41:18;6.63;;;3.00;;
75272;SDS011;63869;52.344;16.928;2023-05-29T14:43:45;6.32;;;2.80;;
75272;SDS011;63869;52.344;16.928;2023-05-29T14:46:10;4.68;;;2.40;;
75272;SDS011;63869;52.344;16.928;2023-05-29T14:48:35;3.80;;;2.40;;
75272;SDS011;63869;52.344;16.928;2023-05-29T14:51:01;4.75;;;2.58;;
75272;SDS011;63869;52.344;16.928;2023-05-29T14:53:29;164.35;;;13.32;;